Time;durP1;ratioP1;P1;durP2;ratioP2;P2;SDS_P1;SDS_P2;PMS_P1;PMS_P2;Temp;Humidity;BMP_temperature;BMP_pressure;BME280_temperature;BME280_humidity;BME280_pressure;Samples;Min_cycle;Max_cycle;Signal;HPM_P1;HPM_P2
2023/07/23 00:02:17;;;;;;;8.18;4.32;;;;;;;;;;4956422;28;20023;-76
2023/07/23 00:04:43;;;;;;;7.10;4.78;;;;;;;;;;4956091;28;20031;-75
2023/07/23 00:07:08;;;;;;;6.18;4.25;;;;;;;;;;4973912;28;20019;-74
2023/07/23 00:09:34;;;;;;;9.45;4.72;;;;;;;;;;4973471;28;20054;-75
2023/07/23 00:12:00;;;;;;;6.07;4.03;;;;;;;;;;4973583;28;20031;-74
2023/07/23 00:14:26;;;;;;;7.43;4.18;;;;;;;;;;4973442;28;20152;-75
2023/07/23 00:16:52;;;;;;;11.75;4.07;;;;;;;;;;4973351;28;20026;-74
2023/07/23 00:19:20;;;;;;;9.80;4.20;;;;;;;;;;4972244;28;20053;-76
2023/07/23 00:21:47;;;;;;;6.47;4.30;;;;;;;;;;4955744;28;20426;-76
2023/07/23 00:24:17;;;;;;;6.45;4.10;;;;;;;;;;4972376;28;20407;-75
2023/07/23 00:26:43;;;;;;;7.78;3.97;;;;;;;;;;4956067;28;20079;-75
2023/07/23 00:29:08;;;;;;;7.90;4.13;;;;;;;;;;4973518;28;20078;-75
2023/07/23 00:31:33;;;;;;;6.95;4.57;;;;;;;;;;4973908;28;20154;-74
2023/07/23 00:33:59;;;;;;;6.53;4.10;;;;;;;;;;4973818;28;20368;-74
2023/07/23 00:36:24;;;;;;;7.80;4.38;;;;;;;;;;4972231;28;20055;-75
2023/07/23 00:38:50;;;;;;;6.53;4.38;;;;;;;;;;4955955;28;20074;-75
2023/07/23 00:41:15;;;;;;;5.28;3.90;;;;;;;;;;4956017;28;20692;-75
2023/07/23 00:43:41;;;;;;;7.82;4.20;;;;;;;;;;4956297;28;20517;-75
2023/07/23 00:46:08;;;;;;;5.28;4.03;;;;;;;;;;4973788;28;20023;-74
2023/07/23 00:48:34;;;;;;;6.25;4.30;;;;;;;;;;4956669;28;20042;-77
2023/07/23 00:50:59;;;;;;;8.98;4.10;;;;;;;;;;4973704;28;20034;-75
2023/07/23 00:53:25;;;;;;;9.95;4.68;;;;;;;;;;4956001;28;20567;-74
2023/07/23 00:55:52;;;;;;;6.97;4.55;;;;;;;;;;4972820;28;20743;-75
2023/07/23 00:58:18;;;;;;;6.65;4.20;;;;;;;;;;4971332;28;20117;-74
2023/07/23 01:00:44;;;;;;;6.13;5.05;;;;;;;;;;4971494;28;20137;-74
2023/07/23 01:03:09;;;;;;;7.38;4.07;;;;;;;;;;4955373;28;20023;-75
2023/07/23 01:05:36;;;;;;;5.32;3.65;;;;;;;;;;4971937;28;20054;-75
2023/07/23 01:08:03;;;;;;;6.97;4.82;;;;;;;;;;4957119;28;20057;-75
2023/07/23 01:10:31;;;;;;;10.65;4.80;;;;;;;;;;4975228;28;20027;-75
2023/07/23 01:12:57;;;;;;;8.30;4.57;;;;;;;;;;4942074;28;20051;-75
2023/07/23 01:15:22;;;;;;;5.80;4.43;;;;;;;;;;4974057;28;20058;-75
2023/07/23 01:17:50;;;;;;;7.80;4.45;;;;;;;;;;4956547;28;20030;-76
2023/07/23 01:20:16;;;;;;;12.48;5.20;;;;;;;;;;4956945;28;20122;-75
2023/07/23 01:22:41;;;;;;;10.43;4.72;;;;;;;;;;4974175;28;20113;-72
2023/07/23 01:25:07;;;;;;;5.03;3.72;;;;;;;;;;4973212;28;20352;-74
2023/07/23 01:27:33;;;;;;;6.47;4.20;;;;;;;;;;4972314;28;20073;-74
2023/07/23 01:29:58;;;;;;;6.38;4.50;;;;;;;;;;4954955;28;20368;-74
2023/07/23 01:32:24;;;;;;;5.85;4.15;;;;;;;;;;4972588;28;20033;-74
2023/07/23 01:34:51;;;;;;;7.43;4.35;;;;;;;;;;4972161;28;20058;-74
2023/07/23 01:37:17;;;;;;;7.00;4.30;;;;;;;;;;4933811;29;20051;-74
2023/07/23 01:39:44;;;;;;;5.82;4.07;;;;;;;;;;4933430;29;20024;-75
2023/07/23 01:42:11;;;;;;;4.80;4.07;;;;;;;;;;4933407;29;20082;-76
2023/07/23 01:44:36;;;;;;;7.78;4.30;;;;;;;;;;4933983;29;20024;-74
2023/07/23 01:47:02;;;;;;;6.40;4.43;;;;;;;;;;4932781;29;20444;-74
2023/07/23 01:49:27;;;;;;;4.88;4.10;;;;;;;;;;4932126;29;20047;-74
2023/07/23 01:51:53;;;;;;;6.68;4.00;;;;;;;;;;4932005;29;20148;-74
2023/07/23 01:54:19;;;;;;;5.95;3.90;;;;;;;;;;4932169;29;20028;-74
2023/07/23 01:56:45;;;;;;;6.75;3.83;;;;;;;;;;4933845;29;20091;-75
2023/07/23 01:59:11;;;;;;;6.15;3.92;;;;;;;;;;4933163;29;20106;-76
2023/07/23 02:01:36;;;;;;;5.90;3.53;;;;;;;;;;4932468;29;20138;-75
2023/07/23 02:04:02;;;;;;;7.18;3.50;;;;;;;;;;4933222;29;20032;-75
2023/07/23 02:06:28;;;;;;;5.63;3.85;;;;;;;;;;4949419;29;20531;-75
2023/07/23 02:08:53;;;;;;;4.15;3.72;;;;;;;;;;4966928;28;20779;-75
2023/07/23 02:11:19;;;;;;;8.82;3.60;;;;;;;;;;4952069;28;20038;-75
2023/07/23 02:13:44;;;;;;;5.65;3.75;;;;;;;;;;4950930;29;20174;-75
2023/07/23 02:16:20;;;;;;;4.50;4.03;;;;;;;;;;4950746;29;20035;-74
2023/07/23 02:18:46;;;;;;;7.57;3.55;;;;;;;;;;4950912;29;20115;-76
2023/07/23 02:21:11;;;;;;;6.40;3.83;;;;;;;;;;4951132;29;20039;-74
2023/07/23 02:23:37;;;;;;;7.00;3.83;;;;;;;;;;4952790;28;20019;-75
2023/07/23 02:26:03;;;;;;;5.38;3.88;;;;;;;;;;4966908;28;20054;-75
2023/07/23 02:28:28;;;;;;;5.57;3.85;;;;;;;;;;4966638;28;20031;-76
2023/07/23 02:30:58;;;;;;;6.60;3.47;;;;;;;;;;4966424;28;20027;-75
2023/07/23 02:33:26;;;;;;;7.07;3.95;;;;;;;;;;4950740;29;20035;-75
2023/07/23 02:35:51;;;;;;;6.35;4.05;;;;;;;;;;4950239;28;20066;-74
2023/07/23 02:38:17;;;;;;;8.50;3.60;;;;;;;;;;4950387;29;20029;-74
2023/07/23 02:40:42;;;;;;;7.72;4.18;;;;;;;;;;4950096;29;20391;-74
2023/07/23 02:43:12;;;;;;;5.05;4.20;;;;;;;;;;4951977;28;20023;-75
2023/07/23 02:45:39;;;;;;;5.32;3.63;;;;;;;;;;4951544;28;20023;-75
2023/07/23 02:48:07;;;;;;;5.88;3.47;;;;;;;;;;4950338;29;20027;-75
2023/07/23 02:50:33;;;;;;;6.15;3.80;;;;;;;;;;4950436;29;20114;-74
2023/07/23 02:52:58;;;;;;;4.43;3.40;;;;;;;;;;4951101;28;20469;-74
2023/07/23 02:55:25;;;;;;;6.00;3.95;;;;;;;;;;4954741;29;20455;-74
2023/07/23 02:57:53;;;;;;;5.43;3.55;;;;;;;;;;4956377;28;20081;-74
2023/07/23 03:00:19;;;;;;;5.30;3.63;;;;;;;;;;4956637;28;20034;-74
2023/07/23 03:02:46;;;;;;;5.00;3.78;;;;;;;;;;4956579;28;20377;-74
2023/07/23 03:05:11;;;;;;;4.38;3.67;;;;;;;;;;4955942;28;20384;-74
2023/07/23 03:07:38;;;;;;;6.38;3.75;;;;;;;;;;4955723;29;20137;-75
2023/07/23 03:10:04;;;;;;;6.13;3.60;;;;;;;;;;4956144;28;20023;-75
2023/07/23 03:12:30;;;;;;;6.32;4.07;;;;;;;;;;4954660;29;20332;-75
2023/07/23 03:14:56;;;;;;;6.07;3.33;;;;;;;;;;4954839;29;20054;-75
2023/07/23 03:17:21;;;;;;;5.15;3.75;;;;;;;;;;4957818;28;20058;-76
2023/07/23 03:19:47;;;;;;;5.30;3.70;;;;;;;;;;4956656;29;20480;-75
2023/07/23 03:22:13;;;;;;;7.40;3.47;;;;;;;;;;4957118;29;20372;-74
2023/07/23 03:24:38;;;;;;;6.72;3.80;;;;;;;;;;4957002;29;20055;-74
2023/07/23 03:27:05;;;;;;;5.70;4.07;;;;;;;;;;4955402;29;20031;-74
2023/07/23 03:29:30;;;;;;;5.32;3.67;;;;;;;;;;4969764;28;20061;-77
2023/07/23 03:31:56;;;;;;;7.07;3.63;;;;;;;;;;4953380;29;20055;-74
2023/07/23 03:34:21;;;;;;;4.60;3.67;;;;;;;;;;4954297;29;20031;-75
2023/07/23 03:36:47;;;;;;;6.18;3.63;;;;;;;;;;4953724;29;20724;-74
2023/07/23 03:39:16;;;;;;;7.82;4.38;;;;;;;;;;4954005;29;20019;-75
2023/07/23 03:41:42;;;;;;;8.43;3.85;;;;;;;;;;4953777;29;20047;-75
2023/07/23 03:44:08;;;;;;;4.60;3.35;;;;;;;;;;4954144;29;20515;-74
2023/07/23 03:46:42;;;;;;;6.10;3.42;;;;;;;;;;4955054;29;20027;-74
2023/07/23 03:49:07;;;;;;;5.35;3.38;;;;;;;;;;4937915;29;20480;-74
2023/07/23 03:51:33;;;;;;;6.85;3.17;;;;;;;;;;4955383;29;20062;-75
2023/07/23 03:53:58;;;;;;;5.55;3.40;;;;;;;;;;4955018;28;20038;-74
2023/07/23 03:56:24;;;;;;;4.57;3.25;;;;;;;;;;4953313;29;20034;-75
2023/07/23 03:58:49;;;;;;;6.57;3.70;;;;;;;;;;4952955;29;20101;-75
2023/07/23 04:01:16;;;;;;;6.47;3.38;;;;;;;;;;4953520;29;20116;-75
2023/07/23 04:03:42;;;;;;;6.85;3.42;;;;;;;;;;4953053;28;20066;-75
2023/07/23 04:06:07;;;;;;;4.00;3.38;;;;;;;;;;4953343;29;20034;-74
2023/07/23 04:08:32;;;;;;;5.43;3.45;;;;;;;;;;4953311;29;20683;-74
2023/07/23 04:10:58;;;;;;;4.25;3.55;;;;;;;;;;4952953;29;20034;-73
2023/07/23 04:13:23;;;;;;;5.20;3.53;;;;;;;;;;4953152;29;20029;-74
2023/07/23 04:15:49;;;;;;;3.90;3.20;;;;;;;;;;4952912;29;20042;-74
2023/07/23 04:18:14;;;;;;;6.80;3.58;;;;;;;;;;4952946;29;20031;-74
2023/07/23 04:20:41;;;;;;;7.90;3.75;;;;;;;;;;4969629;28;20049;-74
2023/07/23 04:23:06;;;;;;;5.25;2.90;;;;;;;;;;4954029;28;20038;-74
2023/07/23 04:25:32;;;;;;;6.13;3.78;;;;;;;;;;4952918;29;20031;-75
2023/07/23 04:27:57;;;;;;;7.30;3.28;;;;;;;;;;4952642;29;20448;-74
2023/07/23 04:30:26;;;;;;;6.30;3.63;;;;;;;;;;4952717;29;20089;-75
2023/07/23 04:32:51;;;;;;;5.70;3.63;;;;;;;;;;4952686;29;20023;-75
2023/07/23 04:35:17;;;;;;;10.80;3.50;;;;;;;;;;4936678;29;20388;-75
2023/07/23 04:37:42;;;;;;;5.85;3.70;;;;;;;;;;4953176;29;20054;-76
2023/07/23 04:40:08;;;;;;;6.55;4.18;;;;;;;;;;4953471;29;20391;-75
2023/07/23 04:42:35;;;;;;;5.60;3.45;;;;;;;;;;4952664;29;20476;-75
2023/07/23 04:45:01;;;;;;;4.43;3.33;;;;;;;;;;4954091;28;20023;-76
2023/07/23 04:47:26;;;;;;;5.25;3.25;;;;;;;;;;4954094;28;20127;-75
2023/07/23 04:49:52;;;;;;;4.82;3.15;;;;;;;;;;4954279;28;20383;-75
2023/07/23 04:52:18;;;;;;;4.22;2.95;;;;;;;;;;4953219;28;20035;-74
2023/07/23 04:54:44;;;;;;;4.70;2.65;;;;;;;;;;4953301;29;20563;-76
2023/07/23 04:57:09;;;;;;;8.75;3.35;;;;;;;;;;4954091;28;20123;-74
2023/07/23 04:59:35;;;;;;;5.32;3.28;;;;;;;;;;4953930;28;20114;-75
2023/07/23 05:02:00;;;;;;;4.72;3.45;;;;;;;;;;4953700;28;20035;-75
2023/07/23 05:04:26;;;;;;;5.43;3.15;;;;;;;;;;4954097;28;20576;-74
2023/07/23 05:06:52;;;;;;;4.28;3.00;;;;;;;;;;4952403;29;20031;-74
2023/07/23 05:09:18;;;;;;;4.25;3.13;;;;;;;;;;4952601;29;20035;-75
2023/07/23 05:11:43;;;;;;;7.60;3.63;;;;;;;;;;4952914;29;20039;-76
2023/07/23 05:14:08;;;;;;;4.55;3.22;;;;;;;;;;4952181;29;20027;-76
2023/07/23 05:16:34;;;;;;;7.40;3.15;;;;;;;;;;4952857;28;20042;-75
2023/07/23 05:19:00;;;;;;;10.48;3.90;;;;;;;;;;4952261;29;20027;-74
2023/07/23 05:21:25;;;;;;;5.53;3.25;;;;;;;;;;4954104;29;20039;-75
2023/07/23 05:23:51;;;;;;;5.88;2.97;;;;;;;;;;4954423;28;20582;-74
2023/07/23 05:26:16;;;;;;;6.38;4.18;;;;;;;;;;4953418;29;20365;-75
2023/07/23 05:28:42;;;;;;;4.45;3.05;;;;;;;;;;4951523;29;20464;-75
2023/07/23 05:31:07;;;;;;;5.07;2.72;;;;;;;;;;4953862;28;20106;-75
2023/07/23 05:33:33;;;;;;;4.20;2.83;;;;;;;;;;4952446;29;20027;-76
2023/07/23 05:35:58;;;;;;;3.40;2.58;;;;;;;;;;4952719;28;20051;-75
2023/07/23 05:38:26;;;;;;;5.65;4.15;;;;;;;;;;4954558;28;20034;-75
2023/07/23 05:40:58;;;;;;;3.50;2.95;;;;;;;;;;4937320;29;20082;-75
2023/07/23 05:43:24;;;;;;;8.38;3.08;;;;;;;;;;4954532;28;20055;-75
2023/07/23 05:45:49;;;;;;;4.00;3.17;;;;;;;;;;4954196;28;20574;-75
2023/07/23 05:48:15;;;;;;;4.70;3.38;;;;;;;;;;4953397;28;20428;-75
2023/07/23 05:50:40;;;;;;;3.45;3.00;;;;;;;;;;4953193;29;20022;-75
2023/07/23 05:53:05;;;;;;;6.10;3.13;;;;;;;;;;4953326;28;20361;-76
2023/07/23 05:55:31;;;;;;;4.40;2.92;;;;;;;;;;4953078;29;20031;-75
2023/07/23 05:57:56;;;;;;;4.75;3.15;;;;;;;;;;4954857;28;20105;-75
2023/07/23 06:00:22;;;;;;;3.85;2.65;;;;;;;;;;4954025;29;20027;-75
2023/07/23 06:02:48;;;;;;;4.22;3.10;;;;;;;;;;4955352;28;20034;-76
2023/07/23 06:05:14;;;;;;;4.95;2.95;;;;;;;;;;4954636;29;20502;-76
2023/07/23 06:07:39;;;;;;;8.88;3.20;;;;;;;;;;4954465;29;20023;-74
2023/07/23 06:10:05;;;;;;;4.30;2.83;;;;;;;;;;4957905;28;20031;-73
2023/07/23 06:12:31;;;;;;;3.33;2.60;;;;;;;;;;4958427;28;20082;-74
2023/07/23 06:14:57;;;;;;;3.35;2.53;;;;;;;;;;4958066;29;20031;-75
2023/07/23 06:17:22;;;;;;;4.50;2.78;;;;;;;;;;4955456;29;20031;-73
2023/07/23 06:19:48;;;;;;;4.45;2.60;;;;;;;;;;4953712;29;20039;-75
2023/07/23 06:22:13;;;;;;;5.35;2.97;;;;;;;;;;4968883;28;20138;-76
2023/07/23 06:24:42;;;;;;;4.78;2.90;;;;;;;;;;4952152;29;20031;-75
2023/07/23 06:27:08;;;;;;;5.60;2.90;;;;;;;;;;4951961;28;20031;-76
2023/07/23 06:29:34;;;;;;;5.28;3.25;;;;;;;;;;4953210;28;20031;-74
2023/07/23 06:31:59;;;;;;;3.60;3.05;;;;;;;;;;4952733;28;20031;-75
2023/07/23 06:34:25;;;;;;;3.97;2.58;;;;;;;;;;4951734;29;20039;-74
2023/07/23 06:36:51;;;;;;;5.32;2.60;;;;;;;;;;4951036;28;20424;-74
2023/07/23 06:39:17;;;;;;;5.03;3.72;;;;;;;;;;4953008;28;20086;-76
2023/07/23 06:41:43;;;;;;;5.75;2.95;;;;;;;;;;4952928;29;20031;-76
2023/07/23 06:44:09;;;;;;;6.50;3.15;;;;;;;;;;4951885;29;20560;-75
2023/07/23 06:46:35;;;;;;;4.72;2.85;;;;;;;;;;4951896;29;20048;-75
2023/07/23 06:49:00;;;;;;;4.70;3.55;;;;;;;;;;4954039;28;20031;-75
2023/07/23 06:51:26;;;;;;;5.40;3.00;;;;;;;;;;4935981;29;20039;-75
2023/07/23 06:53:53;;;;;;;4.75;3.03;;;;;;;;;;4951411;29;20543;-75
2023/07/23 06:56:19;;;;;;;3.92;3.00;;;;;;;;;;4951446;29;20503;-76
2023/07/23 06:58:45;;;;;;;4.40;3.15;;;;;;;;;;4951338;29;20499;-75
2023/07/23 07:01:11;;;;;;;4.07;2.95;;;;;;;;;;4952731;28;20038;-73
2023/07/23 07:03:37;;;;;;;2.80;2.30;;;;;;;;;;4951293;29;20027;-74
2023/07/23 07:06:04;;;;;;;6.45;3.08;;;;;;;;;;4967151;28;20114;-75
2023/07/23 07:08:31;;;;;;;3.38;2.50;;;;;;;;;;4951364;29;20391;-75
2023/07/23 07:11:02;;;;;;;4.70;3.22;;;;;;;;;;4952799;28;20027;-75
2023/07/23 07:13:28;;;;;;;4.78;2.70;;;;;;;;;;4952674;28;20106;-75
2023/07/23 07:15:54;;;;;;;3.65;2.58;;;;;;;;;;4951629;29;20039;-76
2023/07/23 07:18:20;;;;;;;3.95;2.47;;;;;;;;;;4952339;28;20114;-75
2023/07/23 07:20:57;;;;;;;4.13;2.65;;;;;;;;;;4952865;28;20098;-75
2023/07/23 07:23:24;;;;;;;3.90;2.60;;;;;;;;;;4951938;29;20031;-76
2023/07/23 07:25:49;;;;;;;5.45;2.80;;;;;;;;;;4953079;29;20027;-75
2023/07/23 07:28:15;;;;;;;7.25;5.10;;;;;;;;;;4971521;28;20023;-73
2023/07/23 07:30:41;;;;;;;5.70;2.80;;;;;;;;;;4958572;28;20031;-74
2023/07/23 07:33:06;;;;;;;3.95;3.15;;;;;;;;;;4968418;29;20035;-75
2023/07/23 07:35:32;;;;;;;5.28;2.58;;;;;;;;;;4972996;28;20050;-74
2023/07/23 07:37:58;;;;;;;4.93;2.55;;;;;;;;;;4956393;28;20098;-76
2023/07/23 07:40:23;;;;;;;3.92;3.00;;;;;;;;;;4974056;28;20101;-76
2023/07/23 07:42:51;;;;;;;7.60;3.00;;;;;;;;;;4959939;28;20065;-79
2023/07/23 07:45:16;;;;;;;3.40;2.88;;;;;;;;;;4962573;28;20099;-78
2023/07/23 07:47:42;;;;;;;4.45;2.83;;;;;;;;;;4963331;28;20118;-78
2023/07/23 07:50:08;;;;;;;4.18;2.78;;;;;;;;;;4962588;28;20030;-79
2023/07/23 07:52:34;;;;;;;4.63;2.90;;;;;;;;;;4980648;28;20119;-77
2023/07/23 07:55:01;;;;;;;5.20;2.75;;;;;;;;;;4979632;28;20100;-77
2023/07/23 07:57:27;;;;;;;4.03;3.25;;;;;;;;;;4964215;28;20027;-79
2023/07/23 07:59:53;;;;;;;3.38;2.75;;;;;;;;;;4964145;28;20029;-77
2023/07/23 08:02:19;;;;;;;5.40;2.58;;;;;;;;;;4981557;28;20033;-78
2023/07/23 08:04:45;;;;;;;6.18;2.75;;;;;;;;;;4981330;28;20424;-78
2023/07/23 08:07:11;;;;;;;7.50;3.15;;;;;;;;;;4963713;28;20029;-77
2023/07/23 08:09:39;;;;;;;5.65;3.15;;;;;;;;;;4963260;28;20463;-78
2023/07/23 08:12:07;;;;;;;9.05;3.05;;;;;;;;;;4963706;28;20027;-79
2023/07/23 08:14:33;;;;;;;4.55;3.20;;;;;;;;;;4963587;28;20086;-78
2023/07/23 08:17:02;;;;;;;3.45;2.72;;;;;;;;;;4964328;28;20027;-80
2023/07/23 08:19:28;;;;;;;4.82;2.60;;;;;;;;;;4979839;28;20022;-78
2023/07/23 08:21:54;;;;;;;4.10;3.03;;;;;;;;;;4960473;28;20102;-79
2023/07/23 08:24:20;;;;;;;4.22;2.58;;;;;;;;;;4977493;28;20094;-79
2023/07/23 08:26:51;;;;;;;3.40;2.55;;;;;;;;;;4979875;28;20041;-78
2023/07/23 08:29:18;;;;;;;3.15;2.65;;;;;;;;;;4981092;28;20035;-79
2023/07/23 08:31:45;;;;;;;3.28;2.45;;;;;;;;;;4981083;28;20103;-78
2023/07/23 08:34:13;;;;;;;5.60;2.83;;;;;;;;;;4964160;28;20034;-78
2023/07/23 08:36:38;;;;;;;4.85;2.42;;;;;;;;;;4963954;28;20610;-79
2023/07/23 08:39:07;;;;;;;4.63;2.60;;;;;;;;;;4964057;28;20047;-77
2023/07/23 08:42:00;;;;;;;3.20;2.47;;;;;;;;;;4961722;28;20081;-76
2023/07/23 08:44:44;;;;;;;4.00;2.20;;;;;;;;;;4976751;28;20030;-78
2023/07/23 08:47:15;;;;;;;4.40;2.20;;;;;;;;;;4987679;28;20533;-79
2023/07/23 08:49:42;;;;;;;5.47;1.88;;;;;;;;;;4970687;28;20027;-80
2023/07/23 08:52:12;;;;;;;2.72;2.08;;;;;;;;;;4956102;28;20026;-78
2023/07/23 08:54:39;;;;;;;4.25;2.17;;;;;;;;;;4970455;28;20391;-77
2023/07/23 08:57:07;;;;;;;3.90;2.20;;;;;;;;;;4969778;28;20035;-79
2023/07/23 08:59:33;;;;;;;4.40;2.17;;;;;;;;;;4968153;28;20417;-78
2023/07/23 09:02:01;;;;;;;3.03;2.17;;;;;;;;;;4967465;28;20031;-78
2023/07/23 09:04:26;;;;;;;3.75;2.15;;;;;;;;;;4967676;28;20082;-77
2023/07/23 09:06:56;;;;;;;2.78;1.80;;;;;;;;;;4967714;28;20114;-78
2023/07/23 09:09:22;;;;;;;3.95;2.15;;;;;;;;;;4967668;28;20035;-79
2023/07/23 09:11:47;;;;;;;3.17;2.03;;;;;;;;;;4967144;28;20033;-78
2023/07/23 09:14:15;;;;;;;6.05;2.60;;;;;;;;;;4984841;28;20022;-78
2023/07/23 09:16:45;;;;;;;6.80;2.33;;;;;;;;;;4952429;28;20087;-78
2023/07/23 09:19:13;;;;;;;3.92;2.55;;;;;;;;;;4984205;28;20033;-78
2023/07/23 09:21:41;;;;;;;3.90;1.92;;;;;;;;;;4963798;28;20034;-78
2023/07/23 09:24:12;;;;;;;4.60;1.77;;;;;;;;;;4963722;28;20034;-80
2023/07/23 09:26:38;;;;;;;3.10;2.20;;;;;;;;;;4962514;28;20142;-78
2023/07/23 09:29:09;;;;;;;5.38;2.35;;;;;;;;;;4962209;28;20062;-77
2023/07/23 09:31:35;;;;;;;;;;;;;;;;;;4961695;28;20413;-80
2023/07/23 09:34:02;;;;;;;4.45;2.22;;;;;;;;;;4960266;28;19910;-78
2023/07/23 09:36:29;;;;;;;6.35;2.20;;;;;;;;;;4960066;28;20082;-79
2023/07/23 09:39:03;;;;;;;3.47;2.00;;;;;;;;;;4961337;28;20097;-79
2023/07/23 09:41:33;;;;;;;3.22;2.25;;;;;;;;;;4961285;28;20105;-79
2023/07/23 09:44:07;;;;;;;7.80;2.20;;;;;;;;;;4977743;28;20415;-78
2023/07/23 09:46:33;;;;;;;2.80;2.00;;;;;;;;;;4977933;28;20031;-79
2023/07/23 09:48:59;;;;;;;4.07;2.45;;;;;;;;;;4960240;28;20031;-79
2023/07/23 09:51:25;;;;;;;5.22;2.30;;;;;;;;;;4960104;28;20456;-78
2023/07/23 09:53:52;;;;;;;4.88;2.10;;;;;;;;;;4976103;28;20042;-79
2023/07/23 09:56:19;;;;;;;3.83;2.20;;;;;;;;;;4960586;28;20026;-79
2023/07/23 09:58:47;;;;;;;3.80;1.67;;;;;;;;;;4959778;28;20082;-78
2023/07/23 10:01:16;;;;;;;3.20;1.85;;;;;;;;;;4959446;28;20054;-78
2023/07/23 10:03:44;;;;;;;5.22;2.83;;;;;;;;;;4959316;28;20033;-77
2023/07/23 10:06:13;;;;;;;2.38;1.60;;;;;;;;;;4976233;28;20461;-79
2023/07/23 10:08:42;;;;;;;2.30;2.03;;;;;;;;;;4958880;28;20427;-79
2023/07/23 10:11:13;;;;;;;3.08;2.35;;;;;;;;;;4943583;28;20447;-80
2023/07/23 10:13:41;;;;;;;3.72;2.40;;;;;;;;;;4943386;28;20030;-78
2023/07/23 10:16:17;;;;;;;4.13;2.38;;;;;;;;;;4974601;28;20038;-80
2023/07/23 10:18:47;;;;;;;4.28;2.00;;;;;;;;;;4975623;28;20466;-79
2023/07/23 10:21:13;;;;;;;2.65;1.83;;;;;;;;;;4956708;28;20121;-77
2023/07/23 10:23:40;;;;;;;3.17;1.95;;;;;;;;;;4973941;28;20070;-76
2023/07/23 10:26:21;;;;;;;3.08;1.80;;;;;;;;;;4971868;28;20496;-77
2023/07/23 10:28:48;;;;;;;3.08;2.10;;;;;;;;;;4955498;28;20050;-76
2023/07/23 10:31:20;;;;;;;3.78;2.20;;;;;;;;;;4955646;28;20100;-75
2023/07/23 10:33:47;;;;;;;4.57;2.10;;;;;;;;;;4955443;28;20034;-76
2023/07/23 10:36:13;;;;;;;3.70;2.20;;;;;;;;;;4955096;28;20078;-77
2023/07/23 10:38:39;;;;;;;4.40;2.03;;;;;;;;;;4972778;28;20067;-76
2023/07/23 10:41:05;;;;;;;4.55;2.08;;;;;;;;;;4955508;28;20046;-77
2023/07/23 10:43:44;;;;;;;4.50;1.70;;;;;;;;;;4961782;28;20027;-78
2023/07/23 10:46:18;;;;;;;5.10;2.20;;;;;;;;;;4956538;28;20134;-78
2023/07/23 10:48:48;;;;;;;2.55;1.85;;;;;;;;;;4973849;28;20069;-77
2023/07/23 10:51:24;;;;;;;2.85;1.67;;;;;;;;;;4957231;28;20173;-77
2023/07/23 10:53:58;;;;;;;2.97;2.00;;;;;;;;;;4957697;28;20149;-76
2023/07/23 10:56:31;;;;;;;3.75;2.13;;;;;;;;;;4974544;28;20551;-78
2023/07/23 10:59:08;;;;;;;2.95;2.15;;;;;;;;;;4974394;28;20042;-78
2023/07/23 11:01:36;;;;;;;4.88;2.13;;;;;;;;;;4957880;28;20114;-78
2023/07/23 11:04:07;;;;;;;2.50;2.10;;;;;;;;;;4977203;28;20098;-77
2023/07/23 11:06:33;;;;;;;3.55;2.00;;;;;;;;;;4982796;28;20033;-78
2023/07/23 11:09:07;;;;;;;6.93;1.77;;;;;;;;;;4965109;28;20054;-76
2023/07/23 11:11:42;;;;;;;4.35;1.77;;;;;;;;;;4961797;28;20033;-76
2023/07/23 11:14:26;;;;;;;4.95;2.00;;;;;;;;;;4977049;28;20027;-77
2023/07/23 11:16:54;;;;;;;4.00;2.05;;;;;;;;;;4959931;28;20029;-78
2023/07/23 11:19:21;;;;;;;4.80;2.33;;;;;;;;;;4960823;28;20039;-76
2023/07/23 11:21:54;;;;;;;2.85;2.00;;;;;;;;;;4943730;28;20069;-75
2023/07/23 11:24:21;;;;;;;7.45;2.13;;;;;;;;;;4958957;28;20510;-77
2023/07/23 11:26:47;;;;;;;2.75;1.90;;;;;;;;;;4958818;28;20054;-77
2023/07/23 11:29:13;;;;;;;2.65;1.90;;;;;;;;;;4959073;28;20399;-78
2023/07/23 11:31:40;;;;;;;7.15;2.88;;;;;;;;;;4959306;28;20513;-78
2023/07/23 11:34:07;;;;;;;6.47;2.47;;;;;;;;;;4958891;28;20031;-77
2023/07/23 11:36:34;;;;;;;3.42;2.05;;;;;;;;;;4958833;28;20047;-78
2023/07/23 11:39:01;;;;;;;6.25;2.13;;;;;;;;;;4944373;28;20176;-77
2023/07/23 11:41:32;;;;;;;4.00;2.08;;;;;;;;;;4961244;28;20748;-78
2023/07/23 11:43:59;;;;;;;3.45;2.33;;;;;;;;;;4961037;28;20031;-78
2023/07/23 11:46:25;;;;;;;2.60;1.90;;;;;;;;;;4989061;28;20034;-78
2023/07/23 11:48:54;;;;;;;6.30;2.15;;;;;;;;;;4977906;28;20034;-78
2023/07/23 11:51:21;;;;;;;5.78;2.20;;;;;;;;;;4976957;28;20031;-78
2023/07/23 11:53:51;;;;;;;5.63;1.90;;;;;;;;;;4987896;28;20027;-77
2023/07/23 11:56:22;;;;;;;2.20;1.70;;;;;;;;;;4944246;28;20061;-77
2023/07/23 11:58:48;;;;;;;3.88;2.17;;;;;;;;;;4958212;28;20026;-77
2023/07/23 12:01:14;;;;;;;13.40;2.45;;;;;;;;;;4974686;28;20041;-77
2023/07/23 12:03:43;;;;;;;1.92;1.60;;;;;;;;;;4976793;28;20466;-78
2023/07/23 12:06:14;;;;;;;3.10;1.90;;;;;;;;;;4976870;28;20026;-77
2023/07/23 12:08:42;;;;;;;3.25;1.95;;;;;;;;;;4958302;28;20030;-77
2023/07/23 12:11:14;;;;;;;2.35;1.90;;;;;;;;;;4958209;28;20038;-77
2023/07/23 12:13:45;;;;;;;3.25;1.83;;;;;;;;;;4974124;28;20034;-80
2023/07/23 12:16:34;;;;;;;13.52;2.33;;;;;;;;;;4957586;28;20116;-79
2023/07/23 12:19:04;;;;;;;4.25;1.98;;;;;;;;;;4962996;28;20038;-77
2023/07/23 12:21:32;;;;;;;6.32;2.03;;;;;;;;;;4974660;28;20037;-78
2023/07/23 12:24:17;;;;;;;2.92;1.67;;;;;;;;;;4974793;28;20657;-76
2023/07/23 12:26:44;;;;;;;4.65;1.98;;;;;;;;;;4957970;28;20030;-76
2023/07/23 12:29:11;;;;;;;2.20;1.75;;;;;;;;;;4943963;28;20472;-78
2023/07/23 12:31:42;;;;;;;3.05;2.10;;;;;;;;;;4960533;28;20042;-79
2023/07/23 12:34:09;;;;;;;2.80;1.90;;;;;;;;;;4960948;28;20089;-80
2023/07/23 12:36:35;;;;;;;4.55;1.90;;;;;;;;;;4960392;28;20105;-81
2023/07/23 12:39:05;;;;;;;2.78;1.85;;;;;;;;;;4959652;28;20039;-79
2023/07/23 12:41:31;;;;;;;2.40;2.20;;;;;;;;;;4976637;28;20031;-81
2023/07/23 12:43:57;;;;;;;2.92;2.15;;;;;;;;;;4961376;28;20741;-78
2023/07/23 12:46:23;;;;;;;2.88;1.90;;;;;;;;;;4962371;28;20034;-80
2023/07/23 12:48:49;;;;;;;3.72;1.85;;;;;;;;;;4977940;28;20031;-79
2023/07/23 12:51:15;;;;;;;2.67;1.70;;;;;;;;;;4976898;28;20487;-79
2023/07/23 12:53:41;;;;;;;6.22;2.00;;;;;;;;;;4978398;28;20026;-78
2023/07/23 12:56:07;;;;;;;2.15;1.90;;;;;;;;;;4978451;28;20047;-77
2023/07/23 12:58:32;;;;;;;5.82;1.80;;;;;;;;;;4960361;28;20027;-80
2023/07/23 13:00:58;;;;;;;8.35;2.45;;;;;;;;;;4959535;28;20117;-80
2023/07/23 13:03:25;;;;;;;4.72;2.30;;;;;;;;;;4961075;28;20027;-80
2023/07/23 13:05:50;;;;;;;3.15;2.20;;;;;;;;;;4978860;28;20054;-78
2023/07/23 13:08:18;;;;;;;4.40;2.50;;;;;;;;;;4979361;28;20038;-78
2023/07/23 13:10:44;;;;;;;2.22;1.95;;;;;;;;;;4977119;28;20478;-81
2023/07/23 13:13:09;;;;;;;2.15;1.90;;;;;;;;;;4960003;28;20023;-79
2023/07/23 13:15:35;;;;;;;2.70;2.15;;;;;;;;;;4960230;28;20023;-79
2023/07/23 13:18:01;;;;;;;2.70;1.80;;;;;;;;;;4977897;28;20635;-81
2023/07/23 13:20:26;;;;;;;3.70;2.20;;;;;;;;;;4961064;28;20067;-79
2023/07/23 13:22:52;;;;;;;2.35;1.95;;;;;;;;;;4983320;28;20406;-78
2023/07/23 13:25:17;;;;;;;4.82;2.42;;;;;;;;;;4966132;28;20050;-78
2023/07/23 13:27:43;;;;;;;5.35;2.28;;;;;;;;;;4961212;28;20029;-79
2023/07/23 13:30:09;;;;;;;4.13;2.13;;;;;;;;;;4960633;28;20031;-79
2023/07/23 13:32:34;;;;;;;3.38;2.10;;;;;;;;;;4976491;28;20029;-79
2023/07/23 13:35:00;;;;;;;3.10;1.92;;;;;;;;;;4960802;28;20019;-77
2023/07/23 13:37:26;;;;;;;2.88;2.10;;;;;;;;;;4975899;28;20149;-79
2023/07/23 13:39:51;;;;;;;3.17;2.35;;;;;;;;;;4977100;28;20030;-78
2023/07/23 13:42:20;;;;;;;4.45;2.05;;;;;;;;;;4976128;28;20022;-79
2023/07/23 13:44:45;;;;;;;3.10;2.15;;;;;;;;;;4959705;28;20472;-78
2023/07/23 13:47:11;;;;;;;6.75;1.88;;;;;;;;;;4960181;28;20173;-79
2023/07/23 13:49:38;;;;;;;4.00;2.10;;;;;;;;;;4960298;28;20035;-78
2023/07/23 13:52:06;;;;;;;2.42;1.90;;;;;;;;;;4977557;28;20038;-79
2023/07/23 13:54:32;;;;;;;3.55;2.08;;;;;;;;;;4977250;28;20030;-79
2023/07/23 13:56:57;;;;;;;3.38;1.73;;;;;;;;;;4960187;28;20046;-80
2023/07/23 13:59:41;;;;;;;9.35;2.60;;;;;;;;;;4976541;28;20026;-80
2023/07/23 14:02:07;;;;;;;6.57;2.55;;;;;;;;;;4958404;28;20499;-77
2023/07/23 14:04:32;;;;;;;3.30;2.17;;;;;;;;;;4976111;28;20026;-79
2023/07/23 14:06:58;;;;;;;6.10;2.42;;;;;;;;;;4975760;28;20499;-79
2023/07/23 14:09:24;;;;;;;2.88;2.42;;;;;;;;;;4959376;28;20030;-80
2023/07/23 14:11:49;;;;;;;4.25;2.38;;;;;;;;;;4959357;28;20034;-79
2023/07/23 14:14:15;;;;;;;4.30;2.42;;;;;;;;;;4959253;28;20169;-79
2023/07/23 14:16:44;;;;;;;4.25;2.53;;;;;;;;;;4975760;28;20432;-80
2023/07/23 14:19:10;;;;;;;6.22;2.00;;;;;;;;;;4977539;28;20182;-81
2023/07/23 14:21:38;;;;;;;2.92;2.25;;;;;;;;;;4978334;28;20034;-79
2023/07/23 14:24:03;;;;;;;4.65;1.77;;;;;;;;;;4959582;28;20040;-78
2023/07/23 14:26:29;;;;;;;3.67;2.55;;;;;;;;;;4960300;28;20022;-83
2023/07/23 14:28:58;;;;;;;4.22;2.30;;;;;;;;;;4960617;28;20054;-79
2023/07/23 14:31:23;;;;;;;5.72;2.33;;;;;;;;;;4960985;28;20074;-80
2023/07/23 14:33:49;;;;;;;3.60;3.30;;;;;;;;;;4979372;28;20054;-79
2023/07/23 14:36:15;;;;;;;2.83;2.15;;;;;;;;;;4979576;28;20050;-79
2023/07/23 14:38:40;;;;;;;4.25;2.42;;;;;;;;;;4979947;28;20027;-78
2023/07/23 14:41:06;;;;;;;3.90;2.20;;;;;;;;;;4982785;28;20246;-82
2023/07/23 14:43:33;;;;;;;3.58;2.50;;;;;;;;;;4984178;28;20427;-83